createdAt,value
2019-04-27T00:00:43.375Z,0.00
2019-04-27T00:01:45.264Z,0.00
2019-04-27T00:02:43.528Z,0.00
2019-04-27T00:03:43.261Z,0.00
2019-04-27T00:04:42.952Z,0.01
2019-04-27T00:05:43.372Z,0.00
2019-04-27T00:06:46.312Z,0.00
2019-04-27T00:07:41.877Z,0.00
2019-04-27T00:08:43.107Z,0.00
2019-04-27T00:09:50.015Z,0.00
2019-04-27T00:10:43.593Z,0.00
2019-04-27T00:11:45.440Z,0.00
2019-04-27T00:12:42.896Z,0.00
2019-04-27T00:13:43.833Z,0.00
2019-04-27T00:14:43.805Z,0.00
2019-04-27T00:15:43.828Z,0.00
2019-04-27T00:16:46.859Z,0.00
2019-04-27T00:17:48.663Z,0.00
2019-04-27T00:18:43.373Z,0.00
2019-04-27T00:19:43.856Z,0.00
2019-04-27T00:20:43.443Z,0.00
2019-04-27T00:21:43.103Z,0.00
2019-04-27T00:22:43.562Z,0.00
2019-04-27T00:23:42.945Z,0.00
2019-04-27T00:24:44.181Z,0.00
2019-04-27T00:25:43.677Z,0.00
2019-04-27T00:26:43.331Z,0.00
2019-04-27T00:27:43.560Z,0.00
2019-04-27T00:28:43.397Z,0.00
2019-04-27T00:29:43.170Z,0.00
2019-04-27T00:30:43.760Z,0.00
2019-04-27T00:31:43.516Z,0.00
2019-04-27T00:32:43.341Z,0.00
2019-04-27T00:33:43.479Z,0.00
2019-04-27T00:34:43.165Z,0.00
2019-04-27T00:35:43.717Z,0.00
2019-04-27T00:36:43.539Z,0.00
2019-04-27T00:37:42.676Z,0.00
2019-04-27T00:38:43.502Z,0.00
2019-04-27T00:39:43.329Z,0.00
2019-04-27T00:40:43.541Z,0.00
2019-04-27T00:41:43.021Z,0.00
2019-04-27T00:42:43.991Z,0.00
2019-04-27T00:43:42.767Z,0.00
2019-04-27T00:44:43.024Z,0.00
2019-04-27T00:45:43.593Z,0.00
2019-04-27T00:46:43.133Z,0.00
2019-04-27T00:47:54.555Z,0.00
2019-04-27T00:48:43.251Z,0.00
2019-04-27T00:49:41.949Z,0.00
2019-04-27T00:50:43.774Z,0.00
2019-04-27T00:51:43.367Z,0.00
2019-04-27T00:52:42.976Z,0.00
2019-04-27T00:53:43.558Z,0.13
2019-04-27T00:54:44.013Z,0.00
2019-04-27T00:55:43.521Z,0.00
2019-04-27T00:56:43.099Z,0.00
2019-04-27T00:57:43.500Z,0.00
2019-04-27T00:58:43.042Z,0.00
2019-04-27T00:59:43.134Z,0.00
2019-04-27T01:00:43.872Z,0.00
2019-04-27T01:01:43.583Z,0.00
2019-04-27T01:02:43.521Z,0.00
2019-04-27T01:03:43.112Z,0.00
2019-04-27T01:04:42.838Z,0.00
2019-04-27T01:05:43.071Z,0.00
2019-04-27T01:06:43.619Z,0.00
2019-04-27T01:07:43.447Z,0.00
2019-04-27T01:08:42.792Z,0.00
2019-04-27T01:09:42.778Z,0.00
2019-04-27T01:10:43.537Z,0.00
2019-04-27T01:11:43.452Z,0.00
2019-04-27T01:12:42.925Z,0.00
2019-04-27T01:13:43.471Z,0.00
2019-04-27T01:14:42.762Z,0.00
2019-04-27T01:15:43.141Z,0.00
2019-04-27T01:16:42.000Z,0.00
2019-04-27T01:17:42.533Z,0.00
2019-04-27T01:18:42.902Z,0.00
2019-04-27T01:19:43.161Z,0.00
2019-04-27T01:20:42.690Z,0.00
2019-04-27T01:21:42.012Z,0.00
2019-04-27T01:22:42.321Z,0.00
2019-04-27T01:23:41.994Z,0.00
2019-04-27T01:24:42.305Z,0.00
2019-04-27T01:25:42.348Z,0.00
2019-04-27T01:26:42.326Z,0.00
2019-04-27T01:27:41.926Z,0.00
2019-04-27T01:28:41.995Z,0.00
2019-04-27T01:29:42.334Z,0.05
2019-04-27T01:30:42.994Z,0.00
2019-04-27T01:31:42.730Z,0.00
2019-04-27T01:32:42.067Z,0.00
2019-04-27T01:33:42.491Z,0.00
2019-04-27T01:34:42.015Z,0.25
2019-04-27T01:35:41.989Z,0.64
2019-04-27T01:36:42.668Z,0.02
2019-04-27T01:37:43.093Z,0.20
2019-04-27T01:38:41.973Z,0.09
2019-04-27T01:39:41.961Z,0.00
2019-04-27T01:40:42.465Z,0.00
2019-04-27T01:41:41.979Z,0.00
2019-04-27T01:42:42.300Z,0.00
2019-04-27T01:43:42.039Z,0.54
2019-04-27T01:44:42.073Z,0.26
2019-04-27T01:45:43.321Z,0.25
2019-04-27T01:46:42.057Z,0.93
2019-04-27T01:47:42.965Z,0.11
2019-04-27T01:48:41.951Z,0.71
2019-04-27T01:49:42.729Z,0.56
2019-04-27T01:50:42.353Z,0.03
2019-04-27T01:51:42.311Z,1.02
2019-04-27T01:52:41.916Z,0.42
2019-04-27T01:53:42.016Z,0.19
2019-04-27T01:54:42.316Z,0.41
2019-04-27T01:55:43.106Z,0.54
2019-04-27T01:56:42.334Z,0.30
2019-04-27T01:57:42.959Z,0.74
2019-04-27T01:58:42.401Z,0.75
2019-04-27T01:59:42.708Z,0.67
2019-04-27T02:00:41.986Z,0.99
2019-04-27T02:01:43.136Z,0.15
2019-04-27T02:02:42.656Z,0.57
2019-04-27T02:03:41.982Z,0.99
2019-04-27T02:04:42.840Z,0.39
2019-04-27T02:05:42.756Z,0.48
2019-04-27T02:06:42.644Z,1.21
2019-04-27T02:07:41.968Z,0.26
2019-04-27T02:08:42.022Z,0.70
2019-04-27T02:09:42.240Z,0.23
2019-04-27T02:10:42.616Z,0.47
2019-04-27T02:11:42.156Z,0.90
2019-04-27T02:12:44.060Z,1.07
2019-04-27T02:13:42.366Z,0.25
2019-04-27T02:14:42.042Z,0.64
2019-04-27T02:15:42.472Z,0.13
2019-04-27T02:16:42.010Z,0.38
2019-04-27T02:17:42.036Z,0.00
2019-04-27T02:18:42.138Z,0.00
2019-04-27T02:19:42.332Z,0.00
2019-04-27T02:20:44.415Z,0.71
2019-04-27T02:21:42.860Z,0.60
2019-04-27T02:22:42.655Z,1.13
2019-04-27T02:23:42.900Z,0.36
2019-04-27T02:24:42.114Z,1.04
2019-04-27T02:25:43.435Z,0.62
2019-04-27T02:26:42.187Z,0.78
2019-04-27T02:27:42.023Z,1.43
2019-04-27T02:28:42.014Z,0.98
2019-04-27T02:29:42.412Z,0.70
2019-04-27T02:30:42.035Z,0.44
2019-04-27T02:31:42.024Z,1.10
2019-04-27T02:32:42.260Z,1.10
2019-04-27T02:33:43.096Z,0.65
2019-04-27T02:34:42.450Z,0.17
2019-04-27T02:35:42.273Z,0.18
2019-04-27T02:36:42.107Z,0.03
2019-04-27T02:37:42.348Z,0.00
2019-04-27T02:38:42.768Z,0.00
2019-04-27T02:39:42.659Z,1.23
2019-04-27T02:40:42.659Z,1.16
2019-04-27T02:41:42.167Z,0.74
2019-04-27T02:42:42.419Z,0.23
2019-04-27T02:43:42.880Z,0.50
2019-04-27T02:44:42.718Z,0.78
2019-04-27T02:45:42.068Z,0.36
2019-04-27T02:46:42.766Z,0.62
2019-04-27T02:47:42.806Z,0.07
2019-04-27T02:48:55.295Z,0.06
2019-04-27T02:49:42.037Z,0.69
2019-04-27T02:50:42.002Z,1.00
2019-04-27T02:51:42.970Z,0.33
2019-04-27T02:52:42.375Z,0.78
2019-04-27T02:53:42.242Z,0.78
2019-04-27T02:54:42.054Z,0.95
2019-04-27T02:55:42.378Z,0.86
2019-04-27T02:56:42.113Z,0.23
2019-04-27T02:57:42.154Z,1.24
2019-04-27T02:58:42.130Z,0.97
2019-04-27T02:59:42.985Z,0.33
2019-04-27T03:00:42.551Z,0.16
2019-04-27T03:01:46.404Z,0.87
2019-04-27T03:02:42.356Z,0.35
2019-04-27T03:03:42.088Z,1.13
2019-04-27T03:04:42.065Z,1.24
2019-04-27T03:05:45.149Z,0.84
2019-04-27T03:06:42.824Z,1.49
2019-04-27T03:07:42.885Z,1.63
2019-04-27T03:08:42.873Z,0.12
2019-04-27T03:09:42.098Z,1.20
2019-04-27T03:10:42.119Z,0.91
2019-04-27T03:11:42.352Z,0.09
2019-04-27T03:12:42.603Z,0.80
2019-04-27T03:13:42.324Z,1.34
2019-04-27T03:14:42.463Z,0.97
2019-04-27T03:15:42.114Z,0.90
2019-04-27T03:16:42.676Z,0.50
2019-04-27T03:17:42.077Z,0.02
2019-04-27T03:18:42.145Z,0.69
2019-04-27T03:19:43.772Z,1.86
2019-04-27T03:20:42.119Z,1.34
2019-04-27T03:21:42.119Z,1.11
2019-04-27T03:22:42.244Z,0.94
2019-04-27T03:23:42.485Z,0.01
2019-04-27T03:24:42.121Z,1.35
2019-04-27T03:25:42.094Z,0.79
2019-04-27T03:26:42.151Z,1.12
2019-04-27T03:27:42.128Z,1.09
2019-04-27T03:28:42.449Z,0.46
2019-04-27T03:29:42.072Z,0.12
2019-04-27T03:30:43.453Z,0.85
2019-04-27T03:31:47.539Z,0.51
2019-04-27T03:32:43.435Z,0.16
2019-04-27T03:33:43.266Z,1.04
2019-04-27T03:34:42.267Z,0.50
2019-04-27T03:35:43.361Z,0.08
2019-04-27T03:36:42.125Z,0.11
2019-04-27T03:37:42.359Z,0.85
2019-04-27T03:38:42.056Z,0.58
2019-04-27T03:39:42.131Z,0.54
2019-04-27T03:40:42.116Z,0.33
2019-04-27T03:41:42.076Z,0.09
2019-04-27T03:42:42.190Z,0.00
2019-04-27T03:43:42.844Z,0.20
2019-04-27T03:44:42.094Z,0.07
2019-04-27T03:45:42.495Z,0.10
2019-04-27T03:46:42.115Z,0.75
2019-04-27T03:47:42.428Z,0.50
2019-04-27T03:48:42.247Z,1.13
2019-04-27T03:49:42.831Z,0.71
2019-04-27T03:50:42.968Z,0.36
2019-04-27T03:51:42.774Z,0.39
2019-04-27T03:52:42.463Z,0.58
2019-04-27T03:53:42.140Z,0.23
2019-04-27T03:54:42.411Z,0.57
2019-04-27T03:55:42.780Z,0.22
2019-04-27T03:56:42.082Z,0.59
2019-04-27T03:57:42.161Z,0.58
2019-04-27T03:58:42.800Z,0.10
2019-04-27T03:59:42.719Z,0.07
2019-04-27T04:00:42.198Z,0.31
2019-04-27T04:01:42.491Z,0.28
2019-04-27T04:02:42.099Z,0.73
2019-04-27T04:03:42.433Z,0.54
2019-04-27T04:04:42.495Z,0.45
2019-04-27T04:05:42.127Z,0.66
2019-04-27T04:06:42.101Z,1.08
2019-04-27T04:07:42.195Z,0.06
2019-04-27T04:08:42.121Z,0.74
2019-04-27T04:09:43.027Z,0.77
2019-04-27T04:10:43.231Z,0.19
2019-04-27T04:11:42.150Z,0.37
2019-04-27T04:12:42.107Z,0.01
2019-04-27T04:13:42.175Z,0.40
2019-04-27T04:14:42.972Z,1.78
2019-04-27T04:15:42.706Z,0.30
2019-04-27T04:16:43.828Z,1.05
2019-04-27T04:17:42.171Z,0.00
2019-04-27T04:18:42.343Z,0.05
2019-04-27T04:19:53.896Z,0.09
2019-04-27T04:20:43.194Z,0.00
2019-04-27T04:21:42.102Z,0.24
2019-04-27T04:22:42.113Z,1.30
2019-04-27T04:23:42.225Z,0.24
2019-04-27T04:24:42.354Z,0.97
2019-04-27T04:25:42.510Z,0.35
2019-04-27T04:26:42.125Z,0.42
2019-04-27T04:27:42.961Z,0.45
2019-04-27T04:28:42.320Z,0.64
2019-04-27T04:29:42.146Z,0.12
2019-04-27T04:30:42.331Z,0.04
2019-04-27T04:31:42.409Z,1.18
2019-04-27T04:32:42.503Z,0.55
2019-04-27T04:33:42.171Z,0.00
2019-04-27T04:34:42.214Z,0.12
2019-04-27T04:35:42.161Z,0.83
2019-04-27T04:36:42.947Z,1.14
2019-04-27T04:37:42.091Z,0.23
2019-04-27T04:38:43.213Z,0.81
2019-04-27T04:39:42.113Z,0.60
2019-04-27T04:40:42.746Z,1.78
2019-04-27T04:41:43.701Z,0.10
2019-04-27T04:42:42.135Z,0.50
2019-04-27T04:43:42.103Z,0.29
2019-04-27T04:44:42.237Z,0.77
2019-04-27T04:45:42.474Z,0.07
2019-04-27T04:46:43.253Z,0.28
2019-04-27T04:47:42.163Z,0.79
2019-04-27T04:48:42.148Z,0.59
2019-04-27T04:49:42.145Z,0.45
2019-04-27T04:50:42.187Z,0.56
2019-04-27T04:51:42.469Z,1.84
2019-04-27T04:52:42.617Z,0.15
2019-04-27T04:53:42.516Z,0.58
2019-04-27T04:54:42.172Z,0.43
2019-04-27T04:55:42.120Z,0.83
2019-04-27T04:56:42.551Z,1.05
2019-04-27T04:57:45.135Z,0.42
2019-04-27T04:58:42.148Z,1.49
2019-04-27T04:59:43.834Z,1.53
2019-04-27T05:00:42.490Z,0.54
2019-04-27T05:01:42.478Z,0.49
2019-04-27T05:02:43.227Z,2.13
2019-04-27T05:03:42.521Z,0.22
2019-04-27T05:04:42.128Z,0.00
2019-04-27T05:05:42.261Z,0.07
2019-04-27T05:06:43.144Z,0.00
2019-04-27T05:07:42.153Z,0.83
2019-04-27T05:08:42.205Z,0.98
2019-04-27T05:09:42.381Z,0.53
2019-04-27T05:10:42.287Z,0.96
2019-04-27T05:11:42.113Z,1.88
2019-04-27T05:12:42.525Z,0.40
2019-04-27T05:13:42.160Z,0.04
2019-04-27T05:14:42.683Z,0.53
2019-04-27T05:15:43.160Z,0.98
2019-04-27T05:16:42.142Z,0.62
2019-04-27T05:17:42.235Z,0.24
2019-04-27T05:18:42.185Z,0.08
2019-04-27T05:19:42.849Z,0.67
2019-04-27T05:20:42.662Z,1.69
2019-04-27T05:21:42.240Z,1.60
2019-04-27T05:22:43.261Z,0.62
2019-04-27T05:23:42.947Z,0.87
2019-04-27T05:24:42.241Z,1.55
2019-04-27T05:25:42.553Z,2.05
2019-04-27T05:26:43.284Z,1.68
2019-04-27T05:27:43.286Z,2.54
2019-04-27T05:28:42.596Z,0.52
2019-04-27T05:29:42.358Z,1.47
2019-04-27T05:30:43.173Z,2.09
2019-04-27T05:31:42.175Z,2.41
2019-04-27T05:32:42.186Z,2.77
2019-04-27T05:33:42.243Z,1.56
2019-04-27T05:34:42.205Z,0.78
2019-04-27T05:35:42.592Z,1.33
2019-04-27T05:36:48.967Z,3.37
2019-04-27T05:37:44.425Z,1.83
2019-04-27T05:38:45.685Z,2.62
2019-04-27T05:39:42.204Z,2.39
2019-04-27T05:40:42.189Z,1.99
2019-04-27T05:41:42.173Z,2.37
2019-04-27T05:42:42.588Z,1.24
2019-04-27T05:43:42.197Z,1.04
2019-04-27T05:44:45.583Z,1.98
2019-04-27T05:45:42.615Z,1.18
2019-04-27T05:46:42.191Z,1.79
2019-04-27T05:47:43.444Z,1.99
2019-04-27T05:48:42.224Z,1.02
2019-04-27T05:49:44.400Z,1.17
2019-04-27T05:50:45.715Z,2.43
2019-04-27T05:51:42.303Z,1.59
2019-04-27T05:52:42.552Z,0.63
2019-04-27T05:53:42.156Z,2.24
2019-04-27T05:54:42.442Z,3.21
2019-04-27T05:55:42.228Z,0.74
2019-04-27T05:56:42.510Z,1.97
2019-04-27T05:57:42.499Z,3.06
2019-04-27T05:58:42.840Z,1.72
2019-04-27T05:59:42.194Z,2.25
2019-04-27T06:00:42.591Z,2.32
2019-04-27T06:01:43.297Z,1.62
2019-04-27T06:02:42.251Z,1.32
2019-04-27T06:03:42.592Z,1.56
2019-04-27T06:04:42.206Z,1.03
2019-04-27T06:05:42.182Z,1.41
2019-04-27T06:06:42.975Z,0.74
2019-04-27T06:07:42.892Z,1.60
2019-04-27T06:08:42.212Z,1.53
2019-04-27T06:09:42.438Z,0.85
2019-04-27T06:10:42.340Z,1.28
2019-04-27T06:11:42.198Z,1.06
2019-04-27T06:12:42.276Z,0.44
2019-04-27T06:13:42.272Z,2.34
2019-04-27T06:14:44.407Z,1.22
2019-04-27T06:15:42.921Z,0.71
2019-04-27T06:16:42.572Z,2.05
2019-04-27T06:17:42.210Z,0.70
2019-04-27T06:18:42.315Z,0.06
2019-04-27T06:19:43.858Z,0.71
2019-04-27T06:20:51.070Z,1.04
2019-04-27T06:21:43.543Z,1.91
2019-04-27T06:22:42.687Z,1.17
2019-04-27T06:23:42.276Z,1.45
2019-04-27T06:24:43.133Z,1.79
2019-04-27T06:25:42.593Z,0.49
2019-04-27T06:26:42.253Z,1.23
2019-04-27T06:27:42.523Z,1.11
2019-04-27T06:28:42.320Z,2.43
2019-04-27T06:29:42.232Z,1.59
2019-04-27T06:30:42.380Z,1.49
2019-04-27T06:31:42.252Z,1.13
2019-04-27T06:32:42.214Z,0.60
2019-04-27T06:33:42.215Z,1.84
2019-04-27T06:34:42.626Z,1.34
2019-04-27T06:35:42.226Z,1.00
2019-04-27T06:36:42.588Z,1.64
2019-04-27T06:37:42.367Z,1.65
2019-04-27T06:38:43.193Z,1.07
2019-04-27T06:39:42.168Z,1.13
2019-04-27T06:40:42.782Z,0.76
2019-04-27T06:41:42.949Z,1.32
2019-04-27T06:42:42.336Z,1.31
2019-04-27T06:43:43.538Z,1.47
2019-04-27T06:44:42.394Z,0.98
2019-04-27T06:45:42.738Z,2.01
2019-04-27T06:46:42.301Z,1.72
2019-04-27T06:47:42.275Z,1.04
2019-04-27T06:48:42.424Z,0.98
2019-04-27T06:49:42.310Z,0.97
2019-04-27T06:50:42.582Z,1.45
2019-04-27T06:51:42.220Z,0.84
2019-04-27T06:52:42.287Z,0.43
2019-04-27T06:53:42.238Z,1.20
2019-04-27T06:54:42.258Z,1.82
2019-04-27T06:55:42.614Z,1.95
2019-04-27T06:56:42.626Z,2.45
2019-04-27T06:57:42.214Z,2.56
2019-04-27T06:58:42.318Z,1.72
2019-04-27T06:59:43.346Z,1.89
2019-04-27T07:00:42.250Z,2.23
2019-04-27T07:01:43.242Z,1.63
2019-04-27T07:02:42.283Z,1.67
2019-04-27T07:03:42.866Z,1.66
2019-04-27T07:04:42.404Z,1.57
2019-04-27T07:05:42.624Z,1.42
2019-04-27T07:06:53.201Z,1.59
2019-04-27T07:07:42.536Z,3.06
2019-04-27T07:08:42.288Z,3.49
2019-04-27T07:09:42.296Z,2.57
2019-04-27T07:10:42.317Z,1.81
2019-04-27T07:11:42.646Z,2.45
2019-04-27T07:12:42.376Z,4.93
2019-04-27T07:13:43.392Z,3.18
2019-04-27T07:14:52.288Z,2.86
2019-04-27T07:15:42.560Z,3.41
2019-04-27T07:16:42.351Z,2.02
2019-04-27T07:17:42.900Z,2.77
2019-04-27T07:18:42.276Z,3.80
2019-04-27T07:19:42.262Z,2.53
2019-04-27T07:20:42.648Z,1.82
2019-04-27T07:21:42.266Z,1.89
2019-04-27T07:22:42.580Z,2.39
2019-04-27T07:23:42.697Z,2.94
2019-04-27T07:24:42.592Z,2.51
2019-04-27T07:25:42.592Z,1.69
2019-04-27T07:26:42.299Z,1.64
2019-04-27T07:27:45.388Z,2.16
2019-04-27T07:28:42.353Z,2.47
2019-04-27T07:29:44.574Z,1.99
2019-04-27T07:30:42.622Z,1.21
2019-04-27T07:31:43.210Z,2.93
2019-04-27T07:32:43.370Z,4.46
2019-04-27T07:33:42.293Z,2.18
2019-04-27T07:34:42.512Z,1.52
2019-04-27T07:35:43.030Z,1.83
2019-04-27T07:36:45.200Z,3.14
2019-04-27T07:37:42.390Z,2.52
2019-04-27T07:38:42.652Z,1.74
2019-04-27T07:39:42.358Z,2.15
2019-04-27T07:40:42.710Z,2.92
2019-04-27T07:41:42.320Z,2.39
2019-04-27T07:42:42.324Z,2.72
2019-04-27T07:43:43.426Z,3.58
2019-04-27T07:44:42.366Z,2.55
2019-04-27T07:45:42.303Z,2.66
2019-04-27T07:46:42.626Z,1.67
2019-04-27T07:47:42.698Z,1.88
2019-04-27T07:48:42.661Z,2.01
2019-04-27T07:49:42.306Z,2.45
2019-04-27T07:50:42.684Z,3.55
2019-04-27T07:51:43.392Z,2.67
2019-04-27T07:52:42.616Z,3.75
2019-04-27T07:53:42.372Z,3.01
2019-04-27T07:54:42.468Z,2.31
2019-04-27T07:55:42.300Z,2.67
2019-04-27T07:56:42.348Z,2.44
2019-04-27T07:57:43.682Z,3.12
2019-04-27T07:58:42.308Z,3.26
2019-04-27T07:59:42.808Z,1.67
2019-04-27T08:00:42.678Z,2.96
2019-04-27T08:01:43.049Z,2.81
2019-04-27T08:02:43.135Z,3.22
2019-04-27T08:03:42.528Z,2.70
2019-04-27T08:04:42.334Z,2.94
2019-04-27T08:05:42.272Z,3.36
2019-04-27T08:06:42.379Z,3.40
2019-04-27T08:07:42.431Z,1.73
2019-04-27T08:08:42.304Z,2.63
2019-04-27T08:09:42.679Z,2.23
2019-04-27T08:10:42.302Z,2.24
2019-04-27T08:11:42.607Z,1.83
2019-04-27T08:12:42.752Z,3.01
2019-04-27T08:13:43.039Z,2.42
2019-04-27T08:14:42.854Z,1.79
2019-04-27T08:15:42.695Z,3.28
2019-04-27T08:16:42.309Z,3.41
2019-04-27T08:17:42.947Z,2.58
2019-04-27T08:18:42.401Z,2.82
2019-04-27T08:19:42.336Z,1.68
2019-04-27T08:20:42.831Z,3.63
2019-04-27T08:21:44.406Z,2.27
2019-04-27T08:22:42.305Z,3.07
2019-04-27T08:23:43.355Z,2.02
2019-04-27T08:24:43.124Z,2.76
2019-04-27T08:25:42.324Z,1.88
2019-04-27T08:26:42.334Z,2.57
2019-04-27T08:27:42.700Z,4.11
2019-04-27T08:28:43.465Z,3.75
2019-04-27T08:29:42.960Z,3.82
2019-04-27T08:30:42.460Z,2.87
2019-04-27T08:31:42.450Z,2.03
2019-04-27T08:32:43.033Z,1.86
2019-04-27T08:33:42.678Z,2.09
2019-04-27T08:34:42.732Z,2.44
2019-04-27T08:35:43.069Z,3.04
2019-04-27T08:36:42.375Z,1.22
2019-04-27T08:37:42.349Z,2.57
2019-04-27T08:38:42.329Z,2.50
2019-04-27T08:39:43.450Z,3.44
2019-04-27T08:40:42.416Z,1.50
2019-04-27T08:41:42.329Z,2.85
2019-04-27T08:42:42.369Z,2.33
2019-04-27T08:43:42.735Z,2.69
2019-04-27T08:44:43.080Z,1.81
2019-04-27T08:45:42.410Z,1.98
2019-04-27T08:46:43.045Z,2.32
2019-04-27T08:47:42.381Z,3.15
2019-04-27T08:48:42.788Z,3.07
2019-04-27T08:49:42.723Z,3.53
2019-04-27T08:50:42.437Z,3.05
2019-04-27T08:51:42.313Z,2.56
2019-04-27T08:52:43.069Z,3.28
2019-04-27T08:53:42.347Z,2.90
2019-04-27T08:54:43.234Z,3.26
2019-04-27T08:55:42.459Z,2.38
2019-04-27T08:56:42.861Z,2.20
2019-04-27T08:57:42.403Z,1.99
2019-04-27T08:58:43.011Z,1.83
2019-04-27T08:59:42.385Z,2.33
2019-04-27T09:00:42.372Z,4.23
2019-04-27T09:01:43.089Z,3.44
2019-04-27T09:02:47.234Z,2.64
2019-04-27T09:03:42.859Z,1.12
2019-04-27T09:04:42.867Z,2.98
2019-04-27T09:05:42.387Z,1.97
2019-04-27T09:06:42.316Z,3.66
2019-04-27T09:07:43.583Z,2.98
2019-04-27T09:08:42.427Z,3.19
2019-04-27T09:09:43.501Z,5.91
2019-04-27T09:10:42.443Z,3.20
2019-04-27T09:11:42.400Z,4.10
2019-04-27T09:12:42.351Z,2.88
2019-04-27T09:13:42.415Z,4.48
2019-04-27T09:14:43.049Z,3.29
2019-04-27T09:15:42.591Z,4.30
2019-04-27T09:16:43.257Z,2.97
2019-04-27T09:17:42.375Z,3.00
2019-04-27T09:18:42.569Z,2.86
2019-04-27T09:19:42.883Z,3.99
2019-04-27T09:20:43.040Z,4.19
2019-04-27T09:21:42.469Z,4.29
2019-04-27T09:22:42.872Z,3.43
2019-04-27T09:23:42.385Z,4.16
2019-04-27T09:24:42.869Z,2.85
2019-04-27T09:25:43.177Z,2.89
2019-04-27T09:26:42.435Z,3.27
2019-04-27T09:27:42.375Z,3.46
2019-04-27T09:28:42.641Z,3.02
2019-04-27T09:29:42.734Z,4.37
2019-04-27T09:30:42.725Z,3.16
2019-04-27T09:31:42.494Z,2.79
2019-04-27T09:32:43.436Z,4.36
2019-04-27T09:33:42.383Z,1.71
2019-04-27T09:34:42.425Z,4.34
2019-04-27T09:35:42.423Z,3.74
2019-04-27T09:36:43.311Z,2.73
2019-04-27T09:37:42.473Z,2.92
2019-04-27T09:38:42.733Z,1.88
2019-04-27T09:39:42.401Z,3.24
2019-04-27T09:40:42.487Z,3.42
2019-04-27T09:41:42.995Z,1.72
2019-04-27T09:42:42.567Z,3.11
2019-04-27T09:43:42.459Z,2.69
2019-04-27T09:44:42.417Z,2.54
2019-04-27T09:45:42.421Z,1.56
2019-04-27T09:46:42.439Z,3.00
2019-04-27T09:47:43.161Z,2.32
2019-04-27T09:48:42.686Z,2.93
2019-04-27T09:49:43.758Z,4.03
2019-04-27T09:50:42.405Z,2.84
2019-04-27T09:51:42.752Z,2.99
2019-04-27T09:52:42.507Z,2.26
2019-04-27T09:53:42.739Z,1.55
2019-04-27T09:54:43.112Z,1.87
2019-04-27T09:55:43.489Z,3.52
2019-04-27T09:56:42.937Z,3.28
2019-04-27T09:57:43.221Z,2.33
2019-04-27T09:58:42.387Z,2.81
2019-04-27T09:59:42.429Z,2.66
2019-04-27T10:00:42.433Z,3.34
2019-04-27T10:01:42.377Z,1.91
2019-04-27T10:02:42.461Z,2.66
2019-04-27T10:03:42.459Z,2.81
2019-04-27T10:04:42.407Z,2.55
2019-04-27T10:05:42.512Z,3.48
2019-04-27T10:06:42.782Z,3.58
2019-04-27T10:07:42.723Z,2.70
2019-04-27T10:08:43.259Z,3.98
2019-04-27T10:09:43.362Z,3.14
2019-04-27T10:10:42.643Z,2.78
2019-04-27T10:11:42.471Z,4.25
2019-04-27T10:12:43.490Z,2.07
2019-04-27T10:13:42.870Z,2.21
2019-04-27T10:14:42.569Z,2.73
2019-04-27T10:15:42.604Z,3.12
2019-04-27T10:16:44.012Z,2.71
2019-04-27T10:17:42.463Z,3.86
2019-04-27T10:18:43.265Z,3.94
2019-04-27T10:19:42.414Z,3.16
2019-04-27T10:20:42.497Z,2.14
2019-04-27T10:21:43.063Z,3.20
2019-04-27T10:22:43.857Z,2.18
2019-04-27T10:23:42.486Z,4.30
2019-04-27T10:24:42.790Z,3.61
2019-04-27T10:25:42.427Z,2.93
2019-04-27T10:26:43.946Z,2.99
2019-04-27T10:27:42.634Z,2.79
2019-04-27T10:28:42.465Z,2.89
2019-04-27T10:29:43.438Z,3.16
2019-04-27T10:30:42.469Z,2.83
2019-04-27T10:31:42.845Z,2.44
2019-04-27T10:32:42.901Z,2.66
2019-04-27T10:33:42.510Z,4.78
2019-04-27T10:34:43.010Z,2.59
2019-04-27T10:35:42.635Z,3.19
2019-04-27T10:36:42.508Z,1.99
2019-04-27T10:37:42.473Z,2.96
2019-04-27T10:38:42.551Z,3.21
2019-04-27T10:39:43.157Z,1.98
2019-04-27T10:40:42.454Z,4.68
2019-04-27T10:41:43.971Z,2.65
2019-04-27T10:42:43.202Z,4.85
2019-04-27T10:43:43.168Z,4.17
2019-04-27T10:44:46.227Z,3.71
2019-04-27T10:45:42.508Z,2.55
2019-04-27T10:46:43.710Z,3.75
2019-04-27T10:47:43.548Z,2.53
2019-04-27T10:48:45.640Z,2.59
2019-04-27T10:49:42.972Z,1.99
2019-04-27T10:50:46.595Z,3.15
2019-04-27T10:51:45.690Z,3.23
2019-04-27T10:52:52.872Z,2.78
2019-04-27T10:53:42.570Z,2.68
2019-04-27T10:54:42.858Z,2.88
2019-04-27T10:55:43.180Z,4.00
2019-04-27T10:56:43.138Z,4.46
2019-04-27T10:57:42.570Z,3.28
2019-04-27T10:58:45.598Z,1.72
2019-04-27T10:59:42.756Z,3.64
2019-04-27T11:00:42.588Z,3.34
2019-04-27T11:01:43.308Z,3.73
2019-04-27T11:02:42.538Z,1.73
2019-04-27T11:03:42.606Z,3.02
2019-04-27T11:04:42.578Z,4.65
2019-04-27T11:05:43.082Z,2.81
2019-04-27T11:06:42.506Z,2.03
2019-04-27T11:07:42.490Z,3.79
2019-04-27T11:08:43.466Z,2.86
2019-04-27T11:09:42.552Z,3.17
2019-04-27T11:10:42.869Z,3.50
2019-04-27T11:11:42.923Z,1.61
2019-04-27T11:12:42.547Z,2.32
2019-04-27T11:13:43.113Z,2.38
2019-04-27T11:14:42.795Z,2.30
2019-04-27T11:15:42.667Z,2.61
2019-04-27T11:16:42.836Z,1.89
2019-04-27T11:17:42.465Z,3.36
2019-04-27T11:18:42.762Z,2.87
2019-04-27T11:19:42.532Z,3.06
2019-04-27T11:20:42.484Z,3.44
2019-04-27T11:21:42.899Z,3.34
2019-04-27T11:22:42.880Z,2.98
2019-04-27T11:23:43.321Z,2.40
2019-04-27T11:24:42.672Z,1.52
2019-04-27T11:25:42.518Z,2.52
2019-04-27T11:26:42.820Z,1.75
2019-04-27T11:27:43.628Z,2.68
2019-04-27T11:28:42.805Z,2.99
2019-04-27T11:29:42.583Z,3.95
2019-04-27T11:30:42.579Z,4.48
2019-04-27T11:31:42.500Z,2.87
2019-04-27T11:32:43.138Z,2.65
2019-04-27T11:33:42.900Z,2.49
2019-04-27T11:34:42.606Z,3.61
2019-04-27T11:35:42.805Z,2.91
2019-04-27T11:36:45.528Z,2.91
2019-04-27T11:37:42.558Z,1.91
2019-04-27T11:38:42.484Z,1.17
2019-04-27T11:39:42.616Z,1.92
2019-04-27T11:40:42.908Z,2.50
2019-04-27T11:41:42.600Z,1.63
2019-04-27T11:42:42.584Z,3.20
2019-04-27T11:43:42.520Z,2.49
2019-04-27T11:44:42.884Z,2.32
2019-04-27T11:45:42.928Z,2.12
2019-04-27T11:46:42.562Z,0.91
2019-04-27T11:47:42.544Z,1.18
2019-04-27T11:48:42.609Z,1.08
2019-04-27T11:49:42.604Z,2.74
2019-04-27T11:50:42.563Z,2.16
2019-04-27T11:51:42.623Z,1.94
2019-04-27T11:52:42.775Z,1.60
2019-04-27T11:53:43.295Z,1.62
2019-04-27T11:54:43.135Z,3.38
2019-04-27T11:55:42.544Z,1.60
2019-04-27T11:56:42.563Z,2.33
2019-04-27T11:57:42.940Z,2.37
2019-04-27T11:58:42.594Z,2.32
2019-04-27T11:59:42.542Z,1.67
2019-04-27T12:00:42.554Z,1.51
2019-04-27T12:01:42.554Z,1.72
2019-04-27T12:02:42.886Z,1.48
2019-04-27T12:03:43.654Z,2.40
2019-04-27T12:04:42.599Z,2.88
2019-04-27T12:05:42.542Z,1.79
2019-04-27T12:06:43.684Z,3.63
2019-04-27T12:07:42.935Z,4.23
2019-04-27T12:08:42.551Z,2.65
2019-04-27T12:09:42.516Z,1.79
2019-04-27T12:10:42.632Z,3.98
2019-04-27T12:11:42.562Z,3.97
2019-04-27T12:12:42.728Z,3.52
2019-04-27T12:13:42.712Z,3.82
2019-04-27T12:14:42.734Z,4.25
2019-04-27T12:15:42.857Z,3.50
2019-04-27T12:16:42.598Z,5.62
2019-04-27T12:17:42.585Z,3.29
2019-04-27T12:18:43.412Z,4.19
2019-04-27T12:19:42.942Z,3.88
2019-04-27T12:20:43.148Z,4.31
2019-04-27T12:21:42.514Z,5.11
2019-04-27T12:22:43.065Z,5.26
2019-04-27T12:23:42.536Z,5.17
2019-04-27T12:24:42.593Z,4.51
2019-04-27T12:25:44.076Z,3.31
2019-04-27T12:26:43.636Z,3.50
2019-04-27T12:27:43.387Z,5.16
2019-04-27T12:28:43.337Z,3.86
2019-04-27T12:29:42.639Z,3.32
2019-04-27T12:30:42.886Z,2.27
2019-04-27T12:31:46.268Z,3.97
2019-04-27T12:32:42.603Z,2.97
2019-04-27T12:33:42.634Z,1.84
2019-04-27T12:34:42.635Z,3.62
2019-04-27T12:35:42.563Z,2.35
2019-04-27T12:36:45.836Z,2.85
2019-04-27T12:37:42.871Z,4.92
2019-04-27T12:38:42.599Z,4.52
2019-04-27T12:39:42.599Z,3.30
2019-04-27T12:40:43.264Z,1.36
2019-04-27T12:41:43.065Z,2.58
2019-04-27T12:42:43.128Z,1.87
2019-04-27T12:43:43.049Z,1.63
2019-04-27T12:44:42.633Z,1.22
2019-04-27T12:45:43.696Z,1.79
2019-04-27T12:46:42.689Z,1.40
2019-04-27T12:47:42.619Z,2.43
2019-04-27T12:48:43.303Z,2.60
2019-04-27T12:49:42.671Z,1.70
2019-04-27T12:50:43.237Z,1.75
2019-04-27T12:51:42.919Z,1.41
2019-04-27T12:52:42.654Z,2.05
2019-04-27T12:53:50.626Z,0.86
2019-04-27T12:54:42.923Z,1.61
2019-04-27T12:55:42.657Z,1.64
2019-04-27T12:56:42.963Z,2.16
2019-04-27T12:57:43.151Z,3.00
2019-04-27T12:58:43.129Z,2.37
2019-04-27T12:59:44.148Z,3.74
2019-04-27T13:00:42.707Z,3.62
2019-04-27T13:01:42.659Z,2.84
2019-04-27T13:02:42.765Z,5.00
2019-04-27T13:03:42.940Z,6.67
2019-04-27T13:04:43.221Z,3.61
2019-04-27T13:05:42.623Z,6.12
2019-04-27T13:06:43.657Z,7.12
2019-04-27T13:07:43.381Z,5.23
2019-04-27T13:08:42.790Z,4.21
2019-04-27T13:09:42.627Z,4.40
2019-04-27T13:10:43.473Z,3.54
2019-04-27T13:11:42.739Z,3.41
2019-04-27T13:12:43.227Z,3.62
2019-04-27T13:13:43.769Z,4.51
2019-04-27T13:14:43.244Z,2.90
2019-04-27T13:15:42.871Z,2.56
2019-04-27T13:16:43.385Z,2.59
2019-04-27T13:17:42.929Z,1.37
2019-04-27T13:18:42.645Z,2.69